Create Tblcommutelog Verified Points Advance Search
| # | Trip ID | Id Commuter | Trip Date | Trip Num | Current Lat | Current Lng | Delta Distance | Current Time | Activity | Activity Confidence | Current Speed | |
|---|---|---|---|---|---|---|---|---|---|---|---|---|
| 71361 | 260107_771892_16513328_0902 | 771892 | (not set) | (not set) | 38.901356331089 | -77.040784664713 | 6.5485 | 2026-01-07 09:40:42 | on_foot | 100 | -0.44703925898772 | |
| 71362 | 260107_783402_16513623_0801 | 783402 | (not set) | (not set) | 38.9381299 | -76.8850446 | 14.454 | 2026-01-07 08:17:25 | in_vehicle | 100 | 13.044605577262 | |
| 71363 | 260107_783402_16513623_0801 | 783402 | (not set) | (not set) | 38.9165591 | -76.9838491 | 20.3833 | 2026-01-07 08:22:27 | in_vehicle | 100 | 2.0072062728549 | |
| 71364 | 260107_783402_16513623_0801 | 783402 | (not set) | (not set) | 38.9048654 | -77.0035876 | 21.8097 | 2026-01-07 08:28:08 | in_vehicle | 100 | 3.0801004944254 | |
| 71365 | 260107_783402_16513623_0801 | 783402 | (not set) | (not set) | 38.9013981 | -77.0055258 | 22.3834 | 2026-01-07 08:44:00 | still | 100 | -0.44703925898772 | |
| 71366 | 260107_783402_16513623_0801 | 783402 | (not set) | (not set) | 38.9036101 | -77.0396774 | 24.166 | 2026-01-07 08:51:43 | walking | 100 | 0.66161810330183 | |
| 71367 | 260107_787384_6461772_0851 | 787384 | (not set) | (not set) | 39.062523285695 | -77.121348162149 | 12.8265 | 2026-01-07 09:41:02 | in_vehicle | 100 | 0 | |
| 71368 | 260107_781635_16499981_0912 | 781635 | (not set) | (not set) | 38.900206005237 | -77.002542922345 | 2.0137 | 2026-01-07 09:41:26 | in_vehicle | 100 | 4.7564977156294 | |
| 71369 | 260107_788899_6461772_0936 | 788899 | (not set) | (not set) | 38.895974125571 | -77.071273792318 | 0.4806 | 2026-01-07 09:42:06 | still | 33 | -0.44703925898772 | |
| 71370 | 260107_780836_6461772_0900 | 780836 | (not set) | (not set) | 38.880496239245 | -77.124549033151 | 9.3493 | 2026-01-07 09:42:30 | in_vehicle | 100 | 10.724471823116 | |
| 71371 | 260107_780836_6461772_0900 | 780836 | (not set) | (not set) | 38.881752247422 | -77.118982325592 | 9.3493 | 2026-01-07 09:42:56 | in_vehicle | 100 | -0.44703925898772 | |
| 71372 | 260107_790428_6461772_0906 | 790428 | (not set) | (not set) | 38.9013673905 | -77.040960658223 | 7.2751 | 2026-01-07 09:43:40 | unknown | 100 | -0.44703925898772 | |
| 71373 | 260107_781635_16499981_0912 | 781635 | (not set) | (not set) | 38.900229935607 | -77.012482921522 | 2.5515 | 2026-01-07 09:44:35 | in_vehicle | 100 | 1.1265389326491 | |
| 71374 | 260107_789019_16496249_0829 | 789019 | (not set) | (not set) | 38.901364929524 | -77.040937724314 | 22.7514 | 2026-01-07 09:45:23 | on_foot | 100 | -0.44703925898772 | |
| 71375 | 260107_787384_6461772_0851 | 787384 | (not set) | (not set) | 39.02699744223 | -77.103083186866 | 15.5049 | 2026-01-07 09:46:02 | in_vehicle | 100 | 7.7337791804876 | |
| 71376 | 260107_790428_6461772_0907 | 790428 | (not set) | (not set) | 38.901182413137 | -77.041787700499 | 7.3455 | 2026-01-07 09:46:35 | unknown | 100 | 0.28610512575214 | |
| 71377 | 260107_765649_6452825_0906 | 765649 | (not set) | (not set) | 38.983151156262 | -76.929680310492 | 8.8333 | 2026-01-07 09:46:55 | in_vehicle | 100 | 6.1110266703622 | |
| 71378 | 260107_790224_16450333_0903 | 790224 | (not set) | (not set) | 38.872198339727 | -77.045270897767 | 39.5685 | 2026-01-07 09:47:38 | in_vehicle | 100 | 4.3407512047708 | |
| 71379 | 260107_788251_16515465_0913 | 788251 | (not set) | (not set) | 38.961340881329 | -76.966102405152 | 0.5294 | 2026-01-07 09:48:17 | still | 33 | -0.44703925898772 | |
| 71380 | 260107_788899_6461772_0936 | 788899 | (not set) | (not set) | 38.901409888715 | -77.041841227177 | 4.1531 | 2026-01-07 09:49:36 | on_bicycle | 100 | 0.73761477732975 |